createdAt,value
2023-02-03T00:02:14.280Z,1.03
2023-02-03T00:04:42.334Z,1.23
2023-02-03T00:07:10.734Z,1.00
2023-02-03T00:09:38.616Z,1.20
2023-02-03T00:12:07.330Z,1.17
2023-02-03T00:14:35.247Z,1.20
2023-02-03T00:17:03.130Z,1.17
2023-02-03T00:19:32.373Z,1.10
2023-02-03T00:22:00.282Z,1.10
2023-02-03T00:24:28.458Z,1.00
2023-02-03T00:26:56.333Z,1.00
2023-02-03T00:29:25.903Z,1.13
2023-02-03T00:31:54.207Z,1.00
2023-02-03T00:34:22.508Z,0.97
2023-02-03T00:36:51.780Z,1.10
2023-02-03T00:39:19.677Z,1.00
2023-02-03T00:41:47.914Z,0.93
2023-02-03T00:44:15.819Z,0.90
2023-02-03T00:46:43.711Z,1.00
2023-02-03T00:49:11.604Z,1.00
2023-02-03T00:51:39.505Z,0.93
2023-02-03T00:54:08.872Z,1.10
2023-02-03T00:56:36.817Z,1.00
2023-02-03T00:59:04.726Z,1.03
2023-02-03T01:01:32.644Z,1.10
2023-02-03T01:04:00.611Z,1.00
2023-02-03T01:06:28.543Z,1.10
2023-02-03T01:08:56.747Z,1.00
2023-02-03T01:11:27.150Z,1.00
2023-02-03T01:13:55.288Z,1.10
2023-02-03T01:16:24.277Z,1.00
2023-02-03T01:18:52.437Z,1.00
2023-02-03T01:21:24.046Z,0.90
2023-02-03T01:23:52.078Z,0.90
2023-02-03T01:26:21.058Z,1.03
2023-02-03T01:28:53.641Z,1.00
2023-02-03T01:31:22.532Z,0.70
2023-02-03T01:33:50.673Z,1.00
2023-02-03T01:36:18.803Z,0.90
2023-02-03T01:38:46.685Z,0.90
2023-02-03T01:41:16.464Z,0.90
2023-02-03T01:43:47.300Z,1.00
2023-02-03T01:46:26.903Z,1.10
2023-02-03T01:48:55.831Z,0.90
2023-02-03T01:51:25.088Z,0.83
2023-02-03T01:53:54.270Z,0.80
2023-02-03T01:56:22.379Z,0.90
2023-02-03T01:58:50.262Z,1.00
2023-02-03T02:01:19.743Z,1.00
2023-02-03T02:03:53.769Z,0.83
2023-02-03T02:06:21.711Z,1.03
2023-02-03T02:08:51.452Z,1.00
2023-02-03T02:11:21.255Z,0.80
2023-02-03T02:13:49.424Z,0.80
2023-02-03T02:16:19.037Z,0.73
2023-02-03T02:18:55.107Z,0.80
2023-02-03T02:21:57.497Z,0.90
2023-02-03T02:25:03.941Z,0.83
2023-02-03T02:28:10.103Z,0.83
2023-02-03T02:30:55.656Z,0.80
2023-02-03T02:33:30.999Z,0.80
2023-02-03T02:36:00.212Z,0.90
2023-02-03T02:38:36.896Z,0.87
2023-02-03T02:41:09.096Z,0.83
2023-02-03T02:43:41.337Z,0.90
2023-02-03T02:46:12.267Z,0.90
2023-02-03T02:48:42.034Z,0.90
2023-02-03T02:51:10.637Z,0.70
2023-02-03T02:53:39.516Z,0.80
2023-02-03T02:56:11.088Z,1.10
2023-02-03T02:58:39.904Z,1.00
2023-02-03T03:01:09.338Z,0.90
2023-02-03T03:03:42.893Z,1.00
2023-02-03T03:06:13.783Z,0.80
2023-02-03T03:08:43.219Z,0.83
2023-02-03T03:11:11.866Z,0.80
2023-02-03T03:13:42.498Z,0.73
2023-02-03T03:16:10.799Z,0.90
2023-02-03T03:18:43.450Z,0.80
2023-02-03T03:21:12.163Z,0.77
2023-02-03T03:23:42.313Z,1.00
2023-02-03T03:26:12.919Z,0.93
2023-02-03T03:28:45.833Z,0.70
2023-02-03T03:31:13.925Z,0.90
2023-02-03T03:33:43.221Z,0.80
2023-02-03T03:36:15.517Z,0.90
2023-02-03T03:38:44.834Z,0.87
2023-02-03T03:41:14.810Z,0.90
2023-02-03T03:43:44.114Z,1.00
2023-02-03T03:46:14.411Z,0.90
2023-02-03T03:48:47.843Z,0.90
2023-02-03T03:51:17.455Z,0.90
2023-02-03T03:53:45.355Z,0.83
2023-02-03T03:56:16.844Z,0.83
2023-02-03T03:58:46.420Z,0.87
2023-02-03T04:01:14.607Z,0.87
2023-02-03T04:03:45.694Z,0.93
2023-02-03T04:06:13.672Z,0.80
2023-02-03T04:08:41.529Z,1.17
2023-02-03T04:11:09.464Z,0.87
2023-02-03T04:13:37.355Z,0.80
2023-02-03T04:16:05.598Z,0.90
2023-02-03T04:18:33.491Z,0.90
2023-02-03T04:21:02.709Z,0.90
2023-02-03T04:23:30.604Z,0.80
2023-02-03T04:25:58.512Z,0.80
2023-02-03T04:28:26.386Z,0.93
2023-02-03T04:30:54.239Z,1.10
2023-02-03T04:33:22.129Z,0.90
2023-02-03T04:35:50.025Z,1.00
2023-02-03T04:38:19.262Z,0.90
2023-02-03T04:40:47.435Z,1.07
2023-02-03T04:43:17.015Z,1.10
2023-02-03T04:45:44.940Z,0.70
2023-02-03T04:48:12.854Z,0.77
2023-02-03T04:50:40.720Z,0.80
2023-02-03T04:53:08.636Z,0.90
2023-02-03T04:55:37.865Z,1.00
2023-02-03T04:58:05.788Z,1.00
2023-02-03T05:00:33.623Z,1.00
2023-02-03T05:03:01.704Z,0.80
2023-02-03T05:05:29.646Z,1.10
2023-02-03T05:07:57.518Z,1.17
2023-02-03T05:10:25.656Z,1.20
2023-02-03T05:12:55.117Z,1.00
2023-02-03T05:15:23.027Z,0.90
2023-02-03T05:17:52.924Z,1.00
2023-02-03T05:20:20.965Z,1.30
2023-02-03T05:22:49.012Z,1.20
2023-02-03T05:25:17.014Z,1.23
2023-02-03T05:27:44.949Z,1.87
2023-02-03T05:30:14.581Z,1.30
2023-02-03T05:32:42.466Z,1.30
2023-02-03T05:35:10.317Z,1.37
2023-02-03T05:37:38.210Z,1.20
2023-02-03T05:40:25.225Z,1.73
2023-02-03T05:42:53.219Z,1.30
2023-02-03T05:45:22.428Z,1.10
2023-02-03T05:47:50.325Z,1.37
2023-02-03T05:50:18.283Z,1.47
2023-02-03T05:52:46.402Z,1.33
2023-02-03T05:55:14.278Z,1.43
2023-02-03T05:57:42.711Z,1.50
2023-02-03T06:00:11.969Z,1.87
2023-02-03T06:02:41.295Z,1.33
2023-02-03T06:05:09.593Z,1.70
2023-02-03T06:07:37.518Z,1.40
2023-02-03T06:10:06.205Z,2.23
2023-02-03T06:12:34.118Z,1.40
2023-02-03T06:15:01.973Z,1.70
2023-02-03T06:17:29.890Z,1.37
2023-02-03T06:19:59.082Z,1.63
2023-02-03T06:22:26.974Z,1.43
2023-02-03T06:24:55.064Z,1.50
2023-02-03T06:27:22.969Z,1.20
2023-02-03T06:29:51.068Z,1.50
2023-02-03T06:32:20.021Z,1.33
2023-02-03T06:34:47.973Z,1.33
2023-02-03T06:37:17.529Z,1.20
2023-02-03T06:39:45.459Z,1.50
2023-02-03T06:42:13.367Z,1.60
2023-02-03T06:44:41.252Z,1.50
2023-02-03T06:47:09.150Z,1.70
2023-02-03T06:49:37.137Z,1.33
2023-02-03T06:52:05.340Z,1.30
2023-02-03T06:54:34.590Z,1.40
2023-02-03T06:57:02.520Z,1.67
2023-02-03T06:59:30.393Z,1.43
2023-02-03T07:01:58.295Z,1.43
2023-02-03T07:04:28.344Z,1.57
2023-02-03T07:06:56.249Z,1.40
2023-02-03T07:09:24.177Z,1.43
2023-02-03T07:11:53.449Z,1.50
2023-02-03T07:14:21.384Z,1.27
2023-02-03T07:16:49.226Z,1.80
2023-02-03T07:19:17.153Z,1.60
2023-02-03T07:21:45.082Z,1.40
2023-02-03T07:24:13.067Z,1.60
2023-02-03T07:26:40.930Z,1.50
2023-02-03T07:29:10.166Z,1.40
2023-02-03T07:31:38.383Z,1.40
2023-02-03T07:34:06.350Z,1.73
2023-02-03T07:36:34.231Z,1.50
2023-02-03T07:39:02.127Z,1.33
2023-02-03T07:41:29.986Z,1.30
2023-02-03T07:43:57.860Z,1.30
2023-02-03T07:46:27.131Z,1.40
2023-02-03T07:48:55.153Z,1.60
2023-02-03T07:51:23.092Z,1.30
2023-02-03T07:53:51.027Z,1.70
2023-02-03T07:56:18.884Z,1.20
2023-02-03T07:58:46.789Z,1.30
2023-02-03T08:01:15.903Z,1.33
2023-02-03T08:03:45.118Z,1.40
2023-02-03T08:06:13.020Z,1.67
2023-02-03T08:08:41.136Z,1.60
2023-02-03T08:11:09.133Z,1.30
2023-02-03T08:13:37.188Z,1.83
2023-02-03T08:16:05.876Z,1.40
2023-02-03T08:18:33.789Z,1.40
2023-02-03T08:21:04.109Z,1.73
2023-02-03T08:23:32.066Z,1.70
2023-02-03T08:26:00.012Z,1.60
2023-02-03T08:28:27.887Z,1.30
2023-02-03T08:30:56.573Z,1.60
2023-02-03T08:33:24.485Z,1.50
2023-02-03T08:35:52.500Z,1.60
2023-02-03T08:38:22.460Z,1.60
2023-02-03T08:40:50.338Z,1.40
2023-02-03T08:43:18.243Z,1.63
2023-02-03T08:45:46.267Z,1.30
2023-02-03T08:48:14.158Z,1.30
2023-02-03T08:50:42.524Z,1.57
2023-02-03T08:53:10.380Z,1.57
2023-02-03T08:55:41.185Z,1.60
2023-02-03T08:58:09.046Z,1.67
2023-02-03T09:00:36.892Z,1.33
2023-02-03T09:03:05.092Z,1.53
2023-02-03T09:05:33.015Z,1.37
2023-02-03T09:08:00.898Z,1.77
2023-02-03T09:10:29.163Z,1.40
2023-02-03T09:12:59.118Z,1.47
2023-02-03T09:15:27.283Z,1.40
2023-02-03T09:17:57.345Z,1.40
2023-02-03T09:20:26.428Z,1.40
2023-02-03T09:22:55.330Z,1.10
2023-02-03T09:25:23.189Z,1.20
2023-02-03T09:27:51.166Z,1.57
2023-02-03T09:30:20.777Z,1.50
2023-02-03T09:32:54.102Z,1.60
2023-02-03T09:35:22.134Z,1.67
2023-02-03T09:37:50.062Z,1.30
2023-02-03T09:40:21.017Z,1.40
2023-02-03T09:43:06.197Z,1.47
2023-02-03T09:45:35.512Z,1.30
2023-02-03T09:48:05.825Z,1.63
2023-02-03T09:50:35.102Z,1.37
2023-02-03T09:53:05.564Z,1.60
2023-02-03T09:55:35.174Z,1.33
2023-02-03T09:58:05.153Z,1.40
2023-02-03T10:00:37.207Z,1.50
2023-02-03T10:03:08.712Z,1.60
2023-02-03T10:05:49.670Z,1.50
2023-02-03T10:08:23.177Z,1.30
2023-02-03T10:11:09.449Z,1.30
2023-02-03T10:13:41.355Z,1.50
2023-02-03T10:16:22.757Z,1.40
2023-02-03T10:18:52.096Z,1.20
2023-02-03T10:21:22.488Z,1.50
2023-02-03T10:23:51.148Z,1.40
2023-02-03T10:26:21.147Z,1.33
2023-02-03T10:28:52.312Z,1.40
2023-02-03T10:31:23.137Z,1.60
2023-02-03T10:33:54.339Z,1.20
2023-02-03T10:36:23.144Z,1.20
2023-02-03T10:38:56.892Z,1.37
2023-02-03T10:41:24.861Z,1.30
2023-02-03T10:43:53.004Z,1.37
2023-02-03T10:46:25.543Z,1.43
2023-02-03T10:48:53.464Z,1.80
2023-02-03T10:51:22.912Z,1.30
2023-02-03T10:53:53.230Z,1.33
2023-02-03T10:56:23.250Z,1.27
2023-02-03T10:58:52.135Z,1.20
2023-02-03T11:01:22.534Z,1.47
2023-02-03T11:04:00.582Z,1.40
2023-02-03T11:06:29.057Z,1.10
2023-02-03T11:08:57.301Z,1.30
2023-02-03T11:11:26.220Z,1.17
2023-02-03T11:13:55.278Z,1.07
2023-02-03T11:16:25.454Z,1.30
2023-02-03T11:18:57.479Z,1.30
2023-02-03T11:21:26.721Z,1.33
2023-02-03T11:23:56.827Z,1.10
2023-02-03T11:26:27.446Z,1.30
2023-02-03T11:28:57.395Z,1.20
2023-02-03T11:31:27.889Z,1.40
2023-02-03T11:33:58.005Z,1.37
2023-02-03T11:36:30.053Z,1.13
2023-02-03T11:39:19.073Z,1.40
2023-02-03T11:41:47.218Z,1.23
2023-02-03T11:44:19.008Z,1.40
2023-02-03T11:46:49.613Z,1.30
2023-02-03T11:49:37.183Z,1.37
2023-02-03T11:52:07.410Z,1.40
2023-02-03T11:54:38.827Z,0.97
2023-02-03T11:57:19.306Z,1.30
2023-02-03T11:59:53.497Z,1.30
2023-02-03T12:03:06.128Z,1.50
2023-02-03T12:06:12.595Z,1.30
2023-02-03T12:08:50.574Z,1.30
2023-02-03T12:11:24.100Z,1.40
2023-02-03T12:14:14.697Z,1.10
2023-02-03T12:17:09.579Z,1.20
2023-02-03T12:19:45.678Z,1.20
2023-02-03T12:22:16.951Z,1.20
2023-02-03T12:24:50.147Z,1.20
2023-02-03T12:27:23.587Z,1.40
2023-02-03T12:29:54.819Z,1.20
2023-02-03T12:32:26.453Z,1.20
2023-02-03T12:34:57.201Z,1.20
2023-02-03T12:37:26.151Z,1.33
2023-02-03T12:39:54.698Z,1.30
2023-02-03T12:42:24.232Z,1.23
2023-02-03T12:44:53.558Z,1.20
2023-02-03T12:47:25.649Z,1.10
2023-02-03T12:49:56.053Z,1.10
2023-02-03T12:52:26.622Z,1.20
2023-02-03T12:54:59.401Z,1.00
2023-02-03T12:57:29.496Z,0.90
2023-02-03T13:00:05.613Z,1.10
2023-02-03T13:02:35.866Z,1.30
2023-02-03T13:05:07.218Z,1.10
2023-02-03T13:07:40.022Z,1.20
2023-02-03T13:10:13.915Z,1.40
2023-02-03T13:12:43.165Z,1.17
2023-02-03T13:15:20.428Z,1.27
2023-02-03T13:17:50.399Z,1.30
2023-02-03T13:20:21.825Z,1.30
2023-02-03T13:22:51.247Z,1.23
2023-02-03T13:25:23.603Z,1.23
2023-02-03T13:27:52.922Z,1.13
2023-02-03T13:30:31.557Z,1.30
2023-02-03T13:33:41.297Z,1.20
2023-02-03T13:36:33.363Z,1.20
2023-02-03T13:39:16.617Z,0.97
2023-02-03T13:41:47.415Z,1.10
2023-02-03T13:44:16.582Z,1.10
2023-02-03T13:46:46.214Z,1.27
2023-02-03T13:49:21.899Z,1.20
2023-02-03T13:51:51.133Z,1.10
2023-02-03T13:54:24.227Z,1.20
2023-02-03T13:56:56.141Z,1.00
2023-02-03T13:59:39.843Z,1.17
2023-02-03T14:02:50.527Z,1.10
2023-02-03T14:05:41.474Z,1.10
2023-02-03T14:08:52.890Z,1.00
2023-02-03T14:11:49.666Z,1.03
2023-02-03T14:14:45.813Z,1.30
2023-02-03T14:17:58.087Z,1.20
2023-02-03T14:21:03.751Z,1.00
2023-02-03T14:23:47.973Z,1.07
2023-02-03T14:26:21.669Z,1.13
2023-02-03T14:28:53.695Z,0.93
2023-02-03T14:31:22.356Z,1.17
2023-02-03T14:34:14.378Z,1.20
2023-02-03T14:36:47.707Z,1.20
2023-02-03T14:39:48.738Z,1.20
2023-02-03T14:42:39.229Z,1.30
2023-02-03T14:45:15.622Z,1.20
2023-02-03T14:47:50.860Z,1.10
2023-02-03T14:50:24.062Z,1.10
2023-02-03T14:53:08.998Z,1.00
2023-02-03T14:55:46.403Z,1.07
2023-02-03T14:58:22.997Z,1.10
2023-02-03T15:00:54.517Z,0.97
2023-02-03T15:03:29.942Z,1.00
2023-02-03T15:05:59.975Z,1.00
2023-02-03T15:08:33.295Z,0.90
2023-02-03T15:11:02.601Z,1.00
2023-02-03T15:13:31.361Z,0.90
2023-02-03T15:16:01.301Z,0.90
2023-02-03T15:18:30.859Z,1.00
2023-02-03T15:20:58.866Z,1.00
2023-02-03T15:23:27.617Z,0.90
2023-02-03T15:25:56.049Z,0.80
2023-02-03T15:28:24.420Z,1.00
2023-02-03T15:30:53.752Z,0.97
2023-02-03T15:33:23.106Z,1.10
2023-02-03T15:35:52.018Z,0.90
2023-02-03T15:38:21.665Z,1.00
2023-02-03T15:40:50.490Z,1.00
2023-02-03T15:43:19.480Z,0.90
2023-02-03T15:45:54.292Z,0.80
2023-02-03T15:48:27.948Z,0.97
2023-02-03T15:50:57.288Z,1.10
2023-02-03T15:53:29.757Z,1.00
2023-02-03T15:56:04.426Z,1.20
2023-02-03T15:58:36.037Z,0.80
2023-02-03T16:01:05.457Z,0.97
2023-02-03T16:03:38.386Z,1.00
2023-02-03T16:06:10.564Z,0.90
2023-02-03T16:08:41.701Z,0.90
2023-02-03T16:11:23.361Z,0.93
2023-02-03T16:13:51.265Z,0.97
2023-02-03T16:16:21.275Z,0.90
2023-02-03T16:18:54.308Z,0.77
2023-02-03T16:21:36.005Z,0.83
2023-02-03T16:24:05.092Z,0.90
2023-02-03T16:26:33.612Z,0.93
2023-02-03T16:29:31.758Z,0.90
2023-02-03T16:32:17.391Z,0.90
2023-02-03T16:35:04.088Z,0.80
2023-02-03T16:37:50.003Z,0.80
2023-02-03T16:40:37.502Z,0.93
2023-02-03T16:43:23.227Z,0.90
2023-02-03T16:46:13.988Z,0.90
2023-02-03T16:48:59.256Z,0.60
2023-02-03T16:51:30.528Z,1.00
2023-02-03T16:53:58.446Z,0.70
2023-02-03T16:56:26.322Z,0.90
2023-02-03T16:58:54.202Z,0.70
2023-02-03T17:01:22.119Z,0.80
2023-02-03T17:03:50.863Z,0.80
2023-02-03T17:06:18.764Z,0.93
2023-02-03T17:08:48.017Z,0.90
2023-02-03T17:11:17.143Z,0.80
2023-02-03T17:13:45.152Z,0.90
2023-02-03T17:16:14.180Z,0.97
2023-02-03T17:18:42.082Z,1.00
2023-02-03T17:21:11.254Z,0.80
2023-02-03T17:23:39.341Z,0.97
2023-02-03T17:26:08.638Z,0.97
2023-02-03T17:28:36.614Z,1.10
2023-02-03T17:31:06.173Z,1.00
2023-02-03T17:33:34.589Z,1.10
2023-02-03T17:36:04.297Z,0.90
2023-02-03T17:38:32.581Z,0.90
2023-02-03T17:54:49.707Z,0.80
2023-02-03T17:57:17.633Z,0.90
2023-02-03T17:59:47.583Z,1.00
2023-02-03T18:02:15.453Z,0.80
2023-02-03T18:04:44.436Z,0.90
2023-02-03T18:07:12.337Z,0.90
2023-02-03T18:09:40.209Z,0.80
2023-02-03T18:12:08.466Z,0.90
2023-02-03T18:14:36.337Z,1.00
2023-02-03T18:17:05.557Z,1.00
2023-02-03T18:19:33.624Z,0.90
2023-02-03T18:22:01.541Z,0.90
2023-02-03T18:24:30.531Z,1.00
2023-02-03T18:27:00.278Z,1.20
2023-02-03T18:29:29.391Z,1.07
2023-02-03T18:31:57.276Z,1.10
2023-02-03T18:34:26.564Z,1.00
2023-02-03T18:36:54.579Z,1.03
2023-02-03T18:39:22.465Z,1.00
2023-02-03T18:41:50.352Z,0.90
2023-02-03T18:44:18.293Z,1.10
2023-02-03T18:46:46.183Z,1.20
2023-02-03T18:49:14.111Z,1.10
2023-02-03T18:51:43.390Z,1.20
2023-02-03T18:54:11.279Z,1.07
2023-02-03T18:56:39.230Z,1.17
2023-02-03T18:59:07.967Z,1.20
2023-02-03T19:01:35.944Z,1.10
2023-02-03T19:04:04.660Z,1.10
2023-02-03T19:06:33.395Z,1.10
2023-02-03T19:09:02.683Z,1.00
2023-02-03T19:11:30.540Z,1.20
2023-02-03T19:13:58.461Z,1.10
2023-02-03T19:16:26.302Z,1.20
2023-02-03T19:18:54.421Z,1.37
2023-02-03T19:21:22.333Z,1.10
2023-02-03T19:23:50.256Z,1.67
2023-02-03T19:26:19.487Z,1.50
2023-02-03T19:28:47.413Z,1.40
2023-02-03T19:31:16.063Z,1.57
2023-02-03T19:33:44.114Z,1.40
2023-02-03T19:36:12.086Z,1.30
2023-02-03T19:38:40.272Z,1.50
2023-02-03T19:41:09.469Z,1.30
2023-02-03T19:43:39.849Z,1.53
2023-02-03T19:46:07.899Z,1.30
2023-02-03T19:48:35.980Z,1.40
2023-02-03T19:51:03.865Z,1.50
2023-02-03T19:53:31.791Z,1.53
2023-02-03T19:55:59.716Z,1.40
2023-02-03T19:58:27.630Z,1.60
2023-02-03T20:00:56.902Z,1.50
2023-02-03T20:03:24.854Z,1.73
2023-02-03T20:05:53.321Z,1.40
2023-02-03T20:08:21.261Z,1.43
2023-02-03T20:10:49.440Z,1.60
2023-02-03T20:13:18.379Z,1.50
2023-02-03T20:15:47.551Z,1.70
2023-02-03T20:18:16.898Z,1.40
2023-02-03T20:20:44.775Z,1.53
2023-02-03T20:23:12.673Z,1.43
2023-02-03T20:25:40.614Z,1.70
2023-02-03T20:28:08.641Z,1.50
2023-02-03T20:30:36.662Z,1.60
2023-02-03T20:33:05.660Z,1.70
2023-02-03T20:35:34.935Z,1.50
2023-02-03T20:38:02.881Z,1.50
2023-02-03T20:40:30.990Z,1.50
2023-02-03T20:43:03.055Z,1.47
2023-02-03T20:45:31.326Z,1.80
2023-02-03T20:47:59.468Z,1.47
2023-02-03T20:50:40.646Z,1.53
2023-02-03T20:53:13.343Z,1.70
2023-02-03T20:55:41.241Z,1.50
2023-02-03T20:58:13.750Z,1.63
2023-02-03T21:00:41.973Z,1.33
2023-02-03T21:03:28.496Z,1.53
2023-02-03T21:05:56.388Z,1.47
2023-02-03T21:08:26.506Z,1.70
2023-02-03T21:10:54.490Z,1.60
2023-02-03T21:13:23.587Z,1.33
2023-02-03T21:15:52.554Z,1.40
2023-02-03T21:18:38.274Z,1.50
2023-02-03T21:21:06.569Z,1.60
2023-02-03T21:23:39.747Z,1.60
2023-02-03T21:26:19.503Z,1.60
2023-02-03T21:28:48.650Z,1.50
2023-02-03T21:31:24.783Z,1.60
2023-02-03T21:33:52.977Z,1.63
2023-02-03T21:36:22.021Z,1.33
2023-02-03T21:38:51.842Z,1.60
2023-02-03T21:41:20.422Z,1.23
2023-02-03T21:43:50.625Z,1.60
2023-02-03T21:46:18.989Z,1.50
2023-02-03T21:48:48.261Z,1.40
2023-02-03T21:51:17.083Z,1.87
2023-02-03T21:53:48.793Z,1.53
2023-02-03T21:56:21.800Z,1.30
2023-02-03T21:58:50.723Z,1.50
2023-02-03T22:01:19.130Z,1.70
2023-02-03T22:03:48.388Z,2.03
2023-02-03T22:06:22.651Z,1.80
2023-02-03T22:08:51.253Z,1.60
2023-02-03T22:11:21.329Z,2.37
2023-02-03T22:13:49.332Z,1.70
2023-02-03T22:16:18.106Z,1.70
2023-02-03T22:18:46.346Z,1.63
2023-02-03T22:21:14.347Z,1.80
2023-02-03T22:23:42.313Z,2.00
2023-02-03T22:26:10.550Z,1.93
2023-02-03T22:28:39.853Z,1.80
2023-02-03T22:31:08.046Z,1.77
2023-02-03T22:33:36.096Z,1.80
2023-02-03T22:36:04.268Z,1.97
2023-02-03T22:38:32.166Z,1.77
2023-02-03T22:41:00.110Z,1.73
2023-02-03T22:43:30.040Z,1.93
2023-02-03T22:46:01.734Z,2.00
2023-02-03T22:48:30.396Z,1.90
2023-02-03T22:50:58.445Z,1.90
2023-02-03T22:53:26.307Z,2.20
2023-02-03T22:55:54.189Z,2.27
2023-02-03T22:58:22.106Z,2.37
2023-02-03T23:00:50.047Z,1.90
2023-02-03T23:03:19.393Z,1.80
2023-02-03T23:05:47.329Z,1.73
2023-02-03T23:08:15.185Z,1.90
2023-02-03T23:10:43.100Z,1.77
2023-02-03T23:13:11.047Z,1.87
2023-02-03T23:15:39.058Z,1.70
2023-02-03T23:18:07.031Z,2.40
2023-02-03T23:20:36.266Z,1.90
2023-02-03T23:23:04.158Z,1.83
2023-02-03T23:25:32.032Z,2.00
2023-02-03T23:28:00.066Z,1.63
2023-02-03T23:30:28.032Z,1.77
2023-02-03T23:32:55.888Z,1.60
2023-02-03T23:35:41.368Z,1.50
2023-02-03T23:38:10.592Z,1.70
2023-02-03T23:40:38.488Z,1.90
2023-02-03T23:43:06.386Z,1.80
2023-02-03T23:45:34.292Z,1.60
2023-02-03T23:48:02.187Z,1.90
2023-02-03T23:50:30.482Z,1.67
2023-02-03T23:52:58.637Z,2.03
2023-02-03T23:55:27.858Z,1.77
2023-02-03T23:57:55.764Z,1.60
